createdAt,value
2017-11-24T00:00:41.765Z,16.77
2017-11-24T00:03:09.113Z,16.30
2017-11-24T00:05:36.464Z,17.20
2017-11-24T00:08:03.859Z,17.40
2017-11-24T00:10:31.241Z,16.97
2017-11-24T00:12:58.608Z,16.23
2017-11-24T00:15:25.997Z,16.40
2017-11-24T00:17:53.344Z,16.47
2017-11-24T00:20:20.707Z,17.00
2017-11-24T00:22:48.122Z,16.50
2017-11-24T00:25:15.527Z,15.87
2017-11-24T00:27:42.927Z,14.50
2017-11-24T00:30:10.292Z,15.53
2017-11-24T00:32:37.681Z,14.80
2017-11-24T00:35:05.032Z,14.37
2017-11-24T00:37:32.448Z,15.33
2017-11-24T00:40:00.065Z,14.90
2017-11-24T00:42:27.417Z,13.77
2017-11-24T00:44:54.821Z,14.07
2017-11-24T00:47:22.225Z,16.57
2017-11-24T00:49:49.598Z,13.53
2017-11-24T00:52:16.992Z,16.63
2017-11-24T00:54:44.340Z,16.90
2017-11-24T00:57:11.984Z,17.40
2017-11-24T00:59:41.412Z,16.00
2017-11-24T01:02:08.808Z,16.63
2017-11-24T01:04:36.152Z,16.80
2017-11-24T01:07:03.672Z,16.73
2017-11-24T01:09:31.047Z,17.77
2017-11-24T01:11:58.466Z,17.33
2017-11-24T01:14:25.847Z,16.40
2017-11-24T01:16:53.203Z,16.43
2017-11-24T01:19:20.632Z,17.73
2017-11-24T01:21:48.024Z,17.77
2017-11-24T01:24:15.405Z,17.50
2017-11-24T01:26:42.831Z,17.77
2017-11-24T01:29:10.184Z,18.77
2017-11-24T01:31:37.594Z,19.93
2017-11-24T01:34:04.989Z,16.70
2017-11-24T01:36:32.379Z,16.80
2017-11-24T01:38:59.783Z,18.30
2017-11-24T01:41:27.148Z,16.57
2017-11-24T01:43:54.506Z,15.50
2017-11-24T01:46:21.890Z,14.70
2017-11-24T01:48:49.292Z,15.20
2017-11-24T01:51:16.655Z,15.73
2017-11-24T01:53:44.068Z,14.63
2017-11-24T01:56:11.448Z,15.40
2017-11-24T01:58:38.804Z,14.10
2017-11-24T02:01:06.198Z,13.90
2017-11-24T02:03:33.588Z,12.40
2017-11-24T02:06:00.973Z,14.50
2017-11-24T02:08:28.374Z,14.50
2017-11-24T02:10:55.744Z,13.47
2017-11-24T02:13:23.289Z,12.53
2017-11-24T02:15:50.673Z,13.60
2017-11-24T02:18:18.058Z,12.30
2017-11-24T02:20:45.487Z,13.17
2017-11-24T02:23:12.897Z,12.13
2017-11-24T02:25:40.264Z,13.40
2017-11-24T02:28:07.678Z,13.23
2017-11-24T02:30:35.071Z,12.70
2017-11-24T02:33:02.441Z,14.60
2017-11-24T02:35:29.858Z,13.47
2017-11-24T02:37:57.236Z,14.33
2017-11-24T02:40:24.604Z,13.30
2017-11-24T02:42:52.036Z,14.90
2017-11-24T02:45:19.452Z,13.80
2017-11-24T02:47:46.804Z,13.17
2017-11-24T02:50:14.156Z,15.70
2017-11-24T02:52:41.627Z,15.23
2017-11-24T02:55:08.989Z,15.53
2017-11-24T02:57:36.392Z,14.80
2017-11-24T03:00:04.145Z,15.73
2017-11-24T03:02:31.530Z,14.23
2017-11-24T03:04:58.918Z,16.43
2017-11-24T03:07:26.285Z,16.53
2017-11-24T03:09:53.701Z,16.30
2017-11-24T03:12:21.108Z,15.67
2017-11-24T03:14:48.464Z,16.10
2017-11-24T03:17:15.854Z,15.90
2017-11-24T03:19:43.511Z,15.70
2017-11-24T03:22:10.954Z,15.83
2017-11-24T03:24:38.355Z,14.33
2017-11-24T03:27:05.707Z,16.83
2017-11-24T03:29:33.113Z,16.23
2017-11-24T03:32:00.512Z,14.53
2017-11-24T03:34:27.854Z,13.10
2017-11-24T03:36:55.201Z,15.33
2017-11-24T03:39:22.639Z,13.80
2017-11-24T03:41:49.983Z,13.77
2017-11-24T03:44:17.437Z,13.40
2017-11-24T03:46:44.788Z,14.40
2017-11-24T03:49:12.160Z,13.13
2017-11-24T03:51:39.545Z,12.50
2017-11-24T03:54:06.947Z,12.23
2017-11-24T03:56:39.169Z,11.70
2017-11-24T03:59:06.558Z,11.80
2017-11-24T04:01:33.914Z,11.70
2017-11-24T04:04:01.303Z,11.80
2017-11-24T04:06:28.723Z,11.47
2017-11-24T04:08:56.112Z,11.13
2017-11-24T04:11:23.593Z,11.33
2017-11-24T04:13:50.989Z,10.90
2017-11-24T04:16:18.432Z,12.37
2017-11-24T04:18:45.811Z,14.60
2017-11-24T04:21:13.201Z,28.90
2017-11-24T04:23:40.608Z,12.83
2017-11-24T04:26:07.962Z,14.00
2017-11-24T04:28:35.369Z,13.57
2017-11-24T04:31:02.753Z,15.47
2017-11-24T04:33:30.125Z,16.13
2017-11-24T04:35:57.513Z,17.73
2017-11-24T04:38:24.858Z,18.97
2017-11-24T04:40:52.288Z,18.30
2017-11-24T04:43:19.673Z,30.00
2017-11-24T04:45:47.082Z,27.20
2017-11-24T04:48:14.450Z,17.90
2017-11-24T04:50:41.800Z,18.17
2017-11-24T04:53:09.185Z,19.17
2017-11-24T04:55:36.552Z,18.47
2017-11-24T04:58:03.991Z,22.30
2017-11-24T05:00:31.363Z,20.17
2017-11-24T05:02:58.792Z,20.93
2017-11-24T05:05:26.139Z,22.43
2017-11-24T05:07:53.510Z,23.03
2017-11-24T05:10:20.916Z,22.80
2017-11-24T05:12:48.323Z,23.17
2017-11-24T05:15:15.720Z,23.10
2017-11-24T05:17:43.144Z,22.27
2017-11-24T05:20:10.511Z,23.07
2017-11-24T05:22:37.907Z,20.60
2017-11-24T05:25:05.252Z,22.63
2017-11-24T05:27:32.640Z,20.83
2017-11-24T05:30:00.018Z,20.73
2017-11-24T05:32:27.404Z,20.23
2017-11-24T05:34:54.745Z,21.87
2017-11-24T05:37:22.127Z,22.07
2017-11-24T05:39:49.525Z,22.77
2017-11-24T05:42:16.943Z,20.37
2017-11-24T05:44:44.382Z,19.07
2017-11-24T05:47:11.736Z,21.33
2017-11-24T05:49:39.152Z,19.80
2017-11-24T05:52:06.548Z,21.50
2017-11-24T05:54:33.982Z,19.03
2017-11-24T05:57:01.341Z,18.80
2017-11-24T05:59:28.696Z,21.40
2017-11-24T06:01:56.104Z,21.80
2017-11-24T06:04:23.491Z,19.00
2017-11-24T06:06:50.878Z,25.13
2017-11-24T06:09:18.319Z,20.20
2017-11-24T06:11:45.671Z,20.47
2017-11-24T06:14:13.030Z,21.40
2017-11-24T06:16:40.445Z,21.87
2017-11-24T06:19:07.814Z,21.97
2017-11-24T06:21:35.199Z,22.10
2017-11-24T06:24:02.593Z,25.53
2017-11-24T06:26:29.986Z,27.50
2017-11-24T06:28:57.382Z,27.13
2017-11-24T06:31:24.760Z,30.73
2017-11-24T06:33:52.153Z,26.27
2017-11-24T06:36:19.576Z,31.20
2017-11-24T06:38:46.947Z,27.63
2017-11-24T06:41:14.356Z,29.20
2017-11-24T06:43:41.834Z,30.60
2017-11-24T06:46:09.231Z,26.83
2017-11-24T06:48:36.624Z,28.80
2017-11-24T06:51:04.041Z,27.67
2017-11-24T06:53:31.425Z,27.00
2017-11-24T06:55:58.845Z,26.60
2017-11-24T06:58:26.486Z,27.27
2017-11-24T07:00:53.962Z,26.83
2017-11-24T07:03:21.399Z,26.40
2017-11-24T07:05:48.760Z,25.90
2017-11-24T07:08:16.177Z,26.70
2017-11-24T07:10:43.535Z,24.30
2017-11-24T07:13:10.928Z,23.97
2017-11-24T07:15:38.311Z,25.00
2017-11-24T07:18:05.840Z,26.33
2017-11-24T07:20:33.340Z,23.50
2017-11-24T07:23:01.344Z,23.50
2017-11-24T07:25:30.699Z,22.20
2017-11-24T07:27:58.368Z,23.33
2017-11-24T07:30:28.065Z,24.43
2017-11-24T07:32:55.717Z,24.43
2017-11-24T07:35:23.272Z,23.77
2017-11-24T07:37:50.662Z,24.57
2017-11-24T07:40:18.109Z,22.60
2017-11-24T07:42:45.482Z,23.80
2017-11-24T07:45:12.953Z,24.57
2017-11-24T07:47:40.389Z,22.73
2017-11-24T07:50:07.896Z,23.83
2017-11-24T07:52:35.255Z,22.17
2017-11-24T07:55:02.672Z,21.00
2017-11-24T07:57:30.086Z,23.50
2017-11-24T07:59:58.363Z,23.13
2017-11-24T08:02:25.782Z,22.07
2017-11-24T08:04:53.208Z,22.83
2017-11-24T08:07:20.682Z,21.00
2017-11-24T08:09:48.071Z,22.17
2017-11-24T08:12:15.585Z,22.67
2017-11-24T08:14:43.320Z,21.97
2017-11-24T08:17:10.764Z,21.83
2017-11-24T08:19:38.195Z,22.97
2017-11-24T08:22:05.651Z,21.03
2017-11-24T08:24:33.037Z,23.47
2017-11-24T08:27:00.890Z,22.27
2017-11-24T08:29:28.392Z,22.93
2017-11-24T08:31:57.825Z,22.17
2017-11-24T08:34:25.329Z,22.57
2017-11-24T08:36:52.880Z,21.10
2017-11-24T08:39:20.346Z,23.73
2017-11-24T08:41:48.298Z,20.13
2017-11-24T08:44:15.735Z,19.57
2017-11-24T08:46:44.791Z,21.10
2017-11-24T08:49:12.184Z,18.90
2017-11-24T08:51:39.645Z,19.20
2017-11-24T08:54:07.158Z,21.37
2017-11-24T08:56:34.536Z,21.27
2017-11-24T09:01:40.146Z,21.83
2017-11-24T09:04:07.587Z,21.60
2017-11-24T09:06:35.064Z,21.00
2017-11-24T09:09:02.501Z,19.80
2017-11-24T09:11:30.010Z,19.80
2017-11-24T09:13:57.790Z,19.60
2017-11-24T09:16:25.521Z,19.17
2017-11-24T09:18:52.935Z,19.40
2017-11-24T09:21:21.548Z,18.57
2017-11-24T09:23:49.129Z,18.00
2017-11-24T09:26:16.645Z,19.37
2017-11-24T09:28:44.400Z,18.20
2017-11-24T09:31:11.894Z,18.50
2017-11-24T09:33:39.462Z,19.00
2017-11-24T09:36:09.171Z,19.20
2017-11-24T09:38:37.146Z,19.00
2017-11-24T09:41:04.599Z,17.43
2017-11-24T09:43:32.153Z,18.40
2017-11-24T09:46:00.396Z,18.43
2017-11-24T09:48:28.059Z,18.40
2017-11-24T09:50:55.513Z,18.50
2017-11-24T09:53:25.156Z,18.53
2017-11-24T09:55:52.921Z,16.67
2017-11-24T09:58:20.628Z,17.90
2017-11-24T10:00:49.266Z,17.90
2017-11-24T10:03:16.889Z,16.43
2017-11-24T10:05:45.515Z,18.00
2017-11-24T10:08:13.283Z,17.20
2017-11-24T10:10:40.852Z,17.57
2017-11-24T10:13:08.247Z,17.43
2017-11-24T10:15:36.320Z,17.73
2017-11-24T10:18:03.949Z,16.63
2017-11-24T10:20:31.439Z,16.70
2017-11-24T10:22:59.205Z,17.83
2017-11-24T10:25:26.680Z,18.30
2017-11-24T10:27:54.481Z,17.13
2017-11-24T10:30:22.070Z,17.87
2017-11-24T10:32:49.472Z,18.07
2017-11-24T10:35:17.142Z,16.80
2017-11-24T10:37:44.585Z,17.40
2017-11-24T10:40:12.143Z,17.63
2017-11-24T10:42:39.789Z,17.70
2017-11-24T10:45:07.854Z,17.30
2017-11-24T10:50:09.377Z,15.97
2017-11-24T10:52:37.665Z,18.10
2017-11-24T10:55:05.793Z,16.07
2017-11-24T10:57:33.478Z,15.23
2017-11-24T11:00:01.651Z,15.93
2017-11-24T11:02:30.135Z,16.40
2017-11-24T11:04:58.422Z,15.70
2017-11-24T11:07:27.304Z,14.97
2017-11-24T11:09:58.130Z,15.13
2017-11-24T11:12:25.688Z,14.83
2017-11-24T11:17:46.452Z,13.80
2017-11-24T11:20:14.316Z,14.67
2017-11-24T11:22:41.868Z,13.77
2017-11-24T11:25:09.320Z,15.67
2017-11-24T11:27:36.797Z,13.30
2017-11-24T11:30:04.514Z,14.10
2017-11-24T11:32:31.890Z,13.20
2017-11-24T11:34:59.334Z,15.10
2017-11-24T11:37:27.352Z,13.30
2017-11-24T11:39:54.921Z,14.70
2017-11-24T11:42:22.312Z,13.97
2017-11-24T11:44:50.093Z,13.47
2017-11-24T11:47:17.602Z,13.10
2017-11-24T11:49:45.347Z,12.37
2017-11-24T11:52:12.789Z,12.60
2017-11-24T11:54:40.356Z,12.53
2017-11-24T11:57:08.599Z,12.53
2017-11-24T11:59:36.396Z,12.70
2017-11-24T12:02:03.968Z,13.17
2017-11-24T12:04:32.186Z,12.57
2017-11-24T12:07:01.132Z,12.07
2017-11-24T12:09:28.703Z,12.27
2017-11-24T12:11:56.124Z,12.10
2017-11-24T12:14:23.787Z,12.40
2017-11-24T12:16:51.587Z,13.37
2017-11-24T12:19:19.201Z,13.20
2017-11-24T12:21:49.057Z,12.40
2017-11-24T12:24:16.964Z,12.93
2017-11-24T12:26:44.656Z,11.87
2017-11-24T12:29:12.779Z,12.03
2017-11-24T12:31:40.588Z,12.10
2017-11-24T12:34:08.037Z,12.97
2017-11-24T12:36:35.738Z,11.87
2017-11-24T12:39:03.869Z,12.90
2017-11-24T12:41:31.316Z,13.40
2017-11-24T12:46:35.135Z,14.13
2017-11-24T12:49:02.761Z,11.50
2017-11-24T12:51:30.671Z,11.73
2017-11-24T12:53:58.099Z,12.90
2017-11-24T12:59:16.820Z,12.70
2017-11-24T13:01:45.982Z,12.90
2017-11-24T13:04:13.495Z,12.20
2017-11-24T13:06:41.142Z,12.23
2017-11-24T13:09:08.622Z,11.10
2017-11-24T13:11:36.075Z,11.80
2017-11-24T13:14:03.602Z,12.67
2017-11-24T13:16:31.074Z,12.55
2017-11-24T13:18:58.497Z,12.80
2017-11-24T13:21:25.996Z,13.20
2017-11-24T13:23:53.428Z,12.13
2017-11-24T13:26:20.889Z,12.70
2017-11-24T13:28:48.533Z,11.10
2017-11-24T13:31:16.161Z,12.10
2017-11-24T13:33:43.863Z,12.57
2017-11-24T13:36:11.393Z,12.20
2017-11-24T13:38:39.142Z,11.13
2017-11-24T13:41:06.894Z,13.00
2017-11-24T13:43:34.749Z,13.47
2017-11-24T13:46:02.614Z,14.20
2017-11-24T13:48:30.356Z,12.20
2017-11-24T13:50:58.385Z,12.47
2017-11-24T13:53:25.811Z,13.43
2017-11-24T13:55:53.244Z,12.27
2017-11-24T13:58:20.760Z,13.90
2017-11-24T14:00:48.212Z,12.25
2017-11-24T14:03:15.606Z,13.30
2017-11-24T14:05:43.138Z,12.20
2017-11-24T14:08:10.632Z,13.20
2017-11-24T14:10:38.163Z,12.67
2017-11-24T14:13:05.581Z,13.43
2017-11-24T14:15:33.064Z,12.85
2017-11-24T14:18:00.570Z,13.95
2017-11-24T14:20:28.289Z,13.53
2017-11-24T14:22:56.040Z,13.93
2017-11-24T14:25:23.483Z,14.30
2017-11-24T14:27:50.995Z,13.50
2017-11-24T14:30:18.437Z,14.70
2017-11-24T14:32:46.151Z,14.05
2017-11-24T14:35:13.561Z,14.00
2017-11-24T14:37:40.979Z,14.93
2017-11-24T14:40:08.765Z,13.80
2017-11-24T14:42:36.186Z,13.15
2017-11-24T14:45:03.666Z,13.53
2017-11-24T14:47:31.089Z,14.50
2017-11-24T14:49:58.561Z,14.63
2017-11-24T14:52:25.952Z,14.80
2017-11-24T14:54:53.391Z,14.60
2017-11-24T14:57:21.117Z,14.93
2017-11-24T14:59:48.636Z,16.20
2017-11-24T15:02:16.143Z,16.63
2017-11-24T15:04:43.715Z,15.50
2017-11-24T15:07:11.162Z,19.60
2017-11-24T15:09:38.604Z,19.53
2017-11-24T15:12:06.147Z,17.87
2017-11-24T15:14:33.684Z,18.77
2017-11-24T15:17:01.194Z,19.33
2017-11-24T15:19:28.704Z,20.27
2017-11-24T15:21:56.289Z,19.17
2017-11-24T15:24:23.758Z,19.77
2017-11-24T15:26:51.395Z,20.00
2017-11-24T15:29:18.898Z,20.97
2017-11-24T15:31:46.316Z,20.17
2017-11-24T15:34:13.773Z,20.40
2017-11-24T15:36:41.219Z,19.73
2017-11-24T15:39:08.677Z,21.17
2017-11-24T15:41:36.094Z,20.05
2017-11-24T15:44:03.496Z,20.47
2017-11-24T15:46:30.936Z,21.43
2017-11-24T15:48:58.325Z,17.80
2017-11-24T15:51:25.792Z,21.50
2017-11-24T15:53:53.360Z,19.03
2017-11-24T15:56:20.960Z,18.70
2017-11-24T15:58:48.386Z,21.05
2017-11-24T16:01:15.886Z,19.25
2017-11-24T16:03:46.561Z,20.43
2017-11-24T16:06:14.515Z,19.50
2017-11-24T16:08:42.056Z,20.50
2017-11-24T16:11:09.981Z,19.57
2017-11-24T16:13:37.557Z,20.30
2017-11-24T16:16:04.951Z,20.45
2017-11-24T16:18:32.459Z,21.00
2017-11-24T16:21:00.150Z,18.63
2017-11-24T16:23:27.582Z,20.10
2017-11-24T16:25:55.063Z,18.77
2017-11-24T16:28:22.893Z,19.05
2017-11-24T16:30:50.518Z,21.37
2017-11-24T16:33:18.079Z,21.20
2017-11-24T16:35:45.513Z,21.57
2017-11-24T16:38:13.138Z,21.90
2017-11-24T16:40:40.612Z,22.40
2017-11-24T16:43:08.023Z,22.47
2017-11-24T16:45:35.475Z,21.90
2017-11-24T16:48:02.898Z,22.40
2017-11-24T16:50:30.393Z,22.63
2017-11-24T16:52:57.845Z,20.80
2017-11-24T16:55:25.356Z,21.85
2017-11-24T16:57:52.743Z,23.67
2017-11-24T17:00:20.162Z,24.17
2017-11-24T17:02:47.593Z,22.33
2017-11-24T17:05:14.975Z,24.10
2017-11-24T17:07:42.550Z,24.00
2017-11-24T17:10:10.116Z,23.33
2017-11-24T17:12:37.602Z,25.43
2017-11-24T17:15:05.057Z,24.45
2017-11-24T17:17:32.495Z,24.40
2017-11-24T17:20:00.207Z,22.97
2017-11-24T17:22:27.595Z,24.37
2017-11-24T17:24:55.056Z,24.90
2017-11-24T17:27:22.499Z,24.30
2017-11-24T17:29:49.933Z,24.23
2017-11-24T17:32:17.403Z,23.60
2017-11-24T17:34:44.805Z,23.80
2017-11-24T17:37:12.272Z,21.53
2017-11-24T17:39:39.736Z,22.50
2017-11-24T17:42:07.161Z,22.53
2017-11-24T17:44:34.555Z,21.37
2017-11-24T17:47:01.989Z,22.53
2017-11-24T17:49:29.400Z,23.00
2017-11-24T17:51:56.917Z,23.00
2017-11-24T17:54:24.317Z,22.40
2017-11-24T17:56:51.752Z,19.83
2017-11-24T17:59:19.254Z,20.80
2017-11-24T18:01:46.633Z,21.45
2017-11-24T18:04:14.057Z,21.27
2017-11-24T18:06:41.515Z,21.80
2017-11-24T18:09:08.944Z,19.30
2017-11-24T18:11:36.339Z,20.27
2017-11-24T18:14:03.764Z,20.03
2017-11-24T18:16:31.132Z,18.87
2017-11-24T18:18:58.551Z,17.40
2017-11-24T18:21:25.921Z,18.77
2017-11-24T18:23:53.356Z,18.60
2017-11-24T18:26:20.867Z,18.77
2017-11-24T18:28:48.361Z,18.60
2017-11-24T18:31:15.882Z,19.73
2017-11-24T18:33:43.317Z,17.70
2017-11-24T18:36:10.821Z,18.80
2017-11-24T18:38:38.244Z,18.77
2017-11-24T18:41:05.652Z,16.43
2017-11-24T18:43:33.106Z,16.67
2017-11-24T18:46:00.528Z,16.10
2017-11-24T18:48:27.924Z,15.10
2017-11-24T18:50:55.325Z,15.80
2017-11-24T18:53:22.811Z,15.85
2017-11-24T18:55:50.185Z,14.70
2017-11-24T18:58:17.609Z,14.80
2017-11-24T19:00:45.000Z,15.23
2017-11-24T19:03:12.569Z,13.23
2017-11-24T19:05:39.978Z,14.27
2017-11-24T19:08:07.426Z,16.03
2017-11-24T19:10:34.854Z,14.30
2017-11-24T19:13:02.227Z,14.13
2017-11-24T19:15:29.672Z,14.30
2017-11-24T19:17:57.038Z,14.85
2017-11-24T19:20:24.611Z,12.40
2017-11-24T19:22:52.202Z,14.50
2017-11-24T19:25:19.587Z,13.57
2017-11-24T19:27:47.063Z,13.73
2017-11-24T19:30:14.515Z,13.80
2017-11-24T19:32:41.935Z,14.87
2017-11-24T19:35:09.339Z,14.80
2017-11-24T19:37:37.004Z,15.57
2017-11-24T19:40:04.558Z,15.70
2017-11-24T19:42:31.993Z,18.20
2017-11-24T19:44:59.583Z,20.17
2017-11-24T19:47:26.978Z,19.03
2017-11-24T19:49:54.728Z,20.70
2017-11-24T19:52:22.310Z,22.65
2017-11-24T19:54:49.815Z,21.40
2017-11-24T19:57:27.934Z,21.20
2017-11-24T19:59:55.348Z,21.23
2017-11-24T20:02:22.741Z,20.00
2017-11-24T20:04:50.208Z,19.60
2017-11-24T20:07:17.603Z,19.90
2017-11-24T20:09:45.029Z,20.30
2017-11-24T20:12:12.471Z,19.85
2017-11-24T20:14:39.901Z,19.97
2017-11-24T20:17:07.309Z,20.10
2017-11-24T20:19:34.725Z,19.87
2017-11-24T20:22:02.145Z,20.43
2017-11-24T20:24:30.436Z,20.20
2017-11-24T20:26:57.857Z,19.13
2017-11-24T20:29:25.309Z,18.87
2017-11-24T20:31:52.767Z,17.97
2017-11-24T20:34:20.337Z,17.87
2017-11-24T20:36:47.725Z,16.57
2017-11-24T20:39:15.177Z,18.70
2017-11-24T20:41:42.559Z,15.50
2017-11-24T20:44:10.012Z,17.43
2017-11-24T20:46:37.463Z,16.33
2017-11-24T20:49:04.930Z,16.00
2017-11-24T20:51:32.418Z,15.77
2017-11-24T20:53:59.859Z,15.77
2017-11-24T20:56:27.293Z,16.43
2017-11-24T20:58:54.693Z,14.10
2017-11-24T21:01:22.119Z,15.43
2017-11-24T21:03:49.576Z,14.30
2017-11-24T21:06:16.958Z,14.00
2017-11-24T21:08:44.379Z,13.50
2017-11-24T21:11:11.744Z,14.17
2017-11-24T21:13:39.136Z,12.60
2017-11-24T21:16:06.573Z,14.73
2017-11-24T21:18:34.004Z,14.40
2017-11-24T21:21:01.500Z,13.13
2017-11-24T21:23:28.892Z,12.53
2017-11-24T21:25:56.309Z,13.47
2017-11-24T21:28:23.736Z,14.30
2017-11-24T21:30:51.212Z,12.70
2017-11-24T21:33:18.703Z,13.03
2017-11-24T21:35:46.120Z,12.30
2017-11-24T21:38:13.515Z,12.77
2017-11-24T21:40:40.998Z,12.60
2017-11-24T21:43:08.406Z,13.60
2017-11-24T21:45:35.798Z,14.67
2017-11-24T21:48:03.219Z,12.53
2017-11-24T21:50:30.625Z,12.17
2017-11-24T21:52:58.088Z,13.00
2017-11-24T21:55:25.457Z,13.40
2017-11-24T21:57:52.864Z,15.57
2017-11-24T22:00:20.288Z,14.00
2017-11-24T22:02:47.674Z,15.90
2017-11-24T22:05:15.096Z,16.70
2017-11-24T22:07:42.493Z,16.85
2017-11-24T22:10:09.981Z,17.73
2017-11-24T22:12:37.385Z,15.70
2017-11-24T22:15:04.826Z,18.30
2017-11-24T22:17:32.210Z,17.10
2017-11-24T22:19:59.686Z,20.50
2017-11-24T22:22:27.075Z,18.20
2017-11-24T22:24:54.460Z,19.90
2017-11-24T22:27:21.902Z,20.55
2017-11-24T22:29:49.327Z,19.95
2017-11-24T22:32:16.707Z,20.70
2017-11-24T22:34:44.130Z,23.07
2017-11-24T22:37:11.572Z,21.50
2017-11-24T22:39:38.964Z,22.27
2017-11-24T22:42:06.397Z,23.63
2017-11-24T22:44:33.786Z,23.57
2017-11-24T22:47:01.233Z,24.83
2017-11-24T22:49:28.625Z,25.10
2017-11-24T22:51:56.104Z,24.83
2017-11-24T22:54:23.484Z,24.87
2017-11-24T22:56:50.904Z,23.75
2017-11-24T22:59:18.304Z,23.70
2017-11-24T23:01:45.716Z,24.83
2017-11-24T23:04:13.183Z,24.60
2017-11-24T23:06:40.591Z,23.77
2017-11-24T23:09:08.000Z,25.50
2017-11-24T23:11:35.374Z,24.47
2017-11-24T23:14:02.789Z,29.00
2017-11-24T23:16:30.225Z,28.47
2017-11-24T23:18:57.600Z,29.03
2017-11-24T23:21:25.012Z,27.60
2017-11-24T23:23:52.473Z,29.47
2017-11-24T23:26:19.928Z,28.95
2017-11-24T23:28:47.330Z,28.53
2017-11-24T23:31:14.735Z,29.15
2017-11-24T23:33:42.149Z,28.77
2017-11-24T23:36:09.542Z,25.80
2017-11-24T23:38:36.948Z,29.10
2017-11-24T23:41:04.358Z,26.30
2017-11-24T23:43:31.774Z,25.75
2017-11-24T23:45:59.148Z,24.30
2017-11-24T23:48:26.519Z,23.20
2017-11-24T23:50:53.936Z,23.20
2017-11-24T23:53:21.316Z,23.97
2017-11-24T23:55:48.723Z,19.75
2017-11-24T23:58:16.094Z,21.53
